Pride Of Bruges — PGJW — position and weather

sailwx.info

Track history (hours):
 
Tides and Currents Weather Stations Pressure Air Temp Water Temp Dewpoint Dewpoint Depression Visibility Wind Speed Wind Dir Waves Ship Positions

Pride Of Bruges

Operator: P&O Ferries

Last reported at 2020-Apr-02 21:30 UTC. Time now 2020-Apr-02 22:58 UTC.
Position N 53°10' E 000°51'.

Length 180 m; draft 5.5 m.

Type: Ship (hazmat cat B). MMSI: 244387000.

Date/timePositionNaut miles runAvg speedWind from/ knotsBaromVisibWave heightAir tempDewpointWater temp
2020-Apr-02 21:30N 53°10' E 000°51'815.4
2020-Apr-02 21:01N 53°16' E 000°42'2315.4
2020-Apr-02 19:30N 53°32' E 000°15'815.1
2020-Apr-02 19:00N 53°35' E 000°03'815.6
2020-Apr-02 18:30N 53°38' W 000°09'8 2.6
2020-Apr-02 15:30N 53°45' W 000°16'0 0.0
2020-Apr-02 13:29N 53°45' W 000°16'0 0.0
2020-Apr-02 11:58N 53°45' W 000°16'0 0.0
2020-Apr-02 11:00N 53°45' W 000°16'0 0.0
2020-Apr-02 10:30N 53°45' W 000°16'0 0.0
2020-Apr-02 09:30N 53°45' W 000°16'0 0.1
2020-Apr-02 08:00N 53°45' W 000°16'0 0.6
2020-Apr-02 07:30N 53°44' W 000°17'18 9.2
2020-Apr-02 05:30N 53°34' E 000°08'4013.5
2020-Apr-02 02:30N 53°15' E 001°08'714.5
2020-Apr-02 02:01N 53°09' E 001°16'4013.4
2020-Apr-01 23:00N 52°38' E 001°59'713.9
2020-Apr-01 22:31N 52°32' E 002°04'1515.4
2020-Apr-01 21:31N 52°18' E 002°14'815.7
2020-Apr-01 21:01N 52°11' E 002°19'4015.9
2020-Apr-01 18:30N 51°35' E 002°48'815.9
2020-Apr-01 18:00N 51°29' E 002°56'1313.2
2020-Apr-01 17:01N 51°21' E 003°12'1 1.5
2020-Apr-01 16:30N 51°20' E 003°11'0 0.0
2020-Apr-01 10:30N 51°20' E 003°11'0 0.0
2020-Apr-01 07:59N 51°20' E 003°11'0 0.0
2020-Apr-01 07:26N 51°20' E 003°11'13214.0
2020-Mar-31 22:01N 53°05' E 001°00'5914.7
2020-Mar-31 18:01N 53°43' W 000°15'2 1.1
2020-Mar-31 16:30N 53°45' W 000°16'0 0.0
2020-Mar-31 16:00N 53°45' W 000°16'0 0.0
2020-Mar-31 11:28N 53°45' W 000°16'0 0.0
2020-Mar-31 10:58N 53°45' W 000°16'0 0.0
2020-Mar-31 10:00N 53°45' W 000°16'0 0.0
2020-Mar-31 09:30N 53°45' W 000°16'0 0.0
2020-Mar-31 08:30N 53°45' W 000°16'0 0.1
2020-Mar-31 07:30N 53°44' W 000°16'7 7.5
2020-Mar-31 06:30N 53°38' W 000°10'2113.8
2020-Mar-31 04:59N 53°33' E 000°25'2213.7
2020-Mar-31 03:24N 53°22' E 000°55'3614.8
2020-Mar-31 01:00N 52°55' E 001°35'2013.4
2020-Mar-30 23:30N 52°41' E 001°58'2613.0
2020-Mar-30 21:30N 52°17' E 002°14'714.3
2020-Mar-30 21:00N 52°10' E 002°19'5215.0
2020-Mar-30 17:30N 51°25' E 003°02'8 7.3
2020-Mar-30 16:28N 51°20' E 003°11'0 0.0
2020-Mar-30 14:30N 51°20' E 003°11'0 0.0
2020-Mar-30 13:57N 51°20' E 003°11'0 0.0
2020-Mar-30 11:59N 51°20' E 003°11'0 0.0
2020-Mar-30 10:28N 51°20' E 003°11'0 0.0
2020-Mar-30 08:30N 51°20' E 003°11'0 0.0
2020-Mar-30 08:00N 51°20' E 003°11'13 6.4
2020-Mar-30 06:00N 51°27' E 002°54'714.7
2020-Mar-30 05:30N 51°32' E 002°46'5014.4
2020-Mar-30 02:01N 52°19' E 002°15'816.1
2020-Mar-30 01:31N 52°27' E 002°11'4816.0
2020-Mar-29 22:30N 53°00' E 001°14'1616.3
2020-Mar-29 21:30N 53°10' E 000°52'3215.9
2020-Mar-29 19:31N 53°32' E 000°14'713.2
2020-Mar-29 19:00N 53°35' E 000°04'1212.5
2020-Mar-29 18:00N 53°42' W 000°14'3 6.7
2020-Mar-29 17:30N 53°44' W 000°16'0 0.1
2020-Mar-29 16:30N 53°45' W 000°16'0 0.0
2020-Mar-29 14:30N 53°45' W 000°16'0 0.0
2020-Mar-29 13:30N 53°45' W 000°16'0 0.0
2020-Mar-29 13:00N 53°45' W 000°16'0 0.0
2020-Mar-29 12:29N 53°45' W 000°16'0 0.0
2020-Mar-29 11:29N 53°45' W 000°16'0 0.0
2020-Mar-29 08:58N 53°45' W 000°16'0 0.0
2020-Mar-29 03:28N 53°45' W 000°16'0 0.0
2020-Mar-29 02:28N 53°45' W 000°16'0 0.0
2020-Mar-29 00:00N 53°45' W 000°16'0 0.0
2020-Mar-28 23:30N 53°45' W 000°16'0 0.0
2020-Mar-28 20:59N 53°45' W 000°16'0 0.0
2020-Mar-28 19:28N 53°45' W 000°16'0 0.0
2020-Mar-28 15:29N 53°45' W 000°16'0 0.0
2020-Mar-28 12:28N 53°45' W 000°16'0 0.0
2020-Mar-28 11:58N 53°45' W 000°16'0 0.0
2020-Mar-28 11:28N 53°45' W 000°16'0 0.1
2020-Mar-28 08:30N 53°45' W 000°16'18 8.8
2020-Mar-28 06:30N 53°34' E 000°07'713.2
2020-Mar-28 06:00N 53°32' E 000°18'4113.8
2020-Mar-28 03:01N 53°10' E 001°17'816.7
2020-Mar-28 02:30N 53°04' E 001°26'816.4
2020-Mar-28 02:00N 52°57' E 001°34'1616.2
2020-Mar-28 01:00N 52°45' E 001°51'3513.9
2020-Mar-27 22:30N 52°14' E 002°16'1313.2
2020-Mar-27 21:30N 52°01' E 002°25'5011.1
2020-Mar-27 16:59N 51°20' E 003°11'0 0.0
2020-Mar-27 16:29N 51°20' E 003°11'0 0.0
2020-Mar-27 15:59N 51°20' E 003°11'0 0.0
2020-Mar-27 14:58N 51°20' E 003°11'0 0.0
2020-Mar-27 13:28N 51°20' E 003°11'0 0.0
2020-Mar-27 12:30N 51°20' E 003°11'0 0.0
2020-Mar-27 12:00N 51°20' E 003°11'0 0.0
2020-Mar-27 10:29N 51°20' E 003°11'0 0.0
2020-Mar-27 09:59N 51°20' E 003°11'0 0.0
2020-Mar-27 08:00N 51°20' E 003°11'2311.4
2020-Mar-27 06:00N 51°35' E 002°43'3714.8
2020-Mar-27 03:30N 52°10' E 002°22'9415.6
2020-Mar-26 21:30N 53°23' E 000°47'1416.4
2020-Mar-26 20:41N 53°28' E 000°25'3011.0
2020-Mar-26 17:59N 53°45' W 000°16'0 0.0
2020-Mar-26 17:28N 53°45' W 000°16'0 0.0
2020-Mar-26 15:00N 53°45' W 000°16'0 0.0
2020-Mar-26 13:30N 53°45' W 000°16'0 0.0
2020-Mar-26 10:59N 53°45' W 000°16'0 0.0
2020-Mar-26 09:58N 53°45' W 000°16'0 0.0
2020-Mar-26 09:28N 53°45' W 000°16'0 0.1
2020-Mar-26 08:00N 53°45' W 000°16'0 0.6
2020-Mar-26 07:30N 53°44' W 000°16'510.5
2020-Mar-26 07:01N 53°40' W 000°12'815.6
2020-Mar-26 06:30N 53°36' W 000°01'815.3
2020-Mar-26 06:00N 53°33' E 000°11'612.9
2020-Mar-26 05:30N 53°30' E 000°21'1713.2
2020-Mar-26 04:13N 53°24' E 000°48'1114.9
2020-Mar-26 03:30N 53°18' E 001°02'7316.3
2020-Mar-25 23:00N 52°21' E 002°17'3514.0
2020-Mar-25 20:30N 51°48' E 002°40'34 6.8
2020-Mar-25 15:30N 51°20' E 003°11'0 0.0
2020-Mar-25 13:29N 51°20' E 003°11'0 0.0
2020-Mar-25 12:59N 51°20' E 003°11'0 0.0
2020-Mar-25 10:30N 51°20' E 003°11'0 0.0
2020-Mar-25 08:30N 51°20' E 003°11'0 0.0
2020-Mar-25 08:00N 51°20' E 003°11'3211.8
2020-Mar-25 05:17N 51°44' E 002°37'5915.5
2020-Mar-25 01:31N 52°38' E 001°59'815.1
2020-Mar-25 01:01N 52°44' E 001°52'815.8
2020-Mar-25 00:31N 52°50' E 001°44'2416.3
2020-Mar-24 23:01N 53°09' E 001°17'2415.9
2020-Mar-24 21:28N 53°23' E 000°44'2315.9
2020-Mar-24 20:01N 53°33' E 000°09'917.6
2020-Mar-24 19:31N 53°37' W 000°05'815.6
2020-Mar-24 19:00N 53°42' W 000°14'3 1.7
2020-Mar-24 17:31N 53°45' W 000°16'0 0.0
2020-Mar-24 17:00N 53°45' W 000°16'0 0.0
2020-Mar-24 15:31N 53°45' W 000°16'0 0.0
2020-Mar-24 14:00N 53°45' W 000°16'0 0.0
2020-Mar-24 13:31N 53°45' W 000°16'0 0.0
2020-Mar-24 13:00N 53°45' W 000°16'0 0.0
2020-Mar-24 10:00N 53°45' W 000°16'0 0.0
2020-Mar-24 08:31N 53°45' W 000°16'0 0.2
2020-Mar-24 08:00N 53°44' W 000°16'0 0.3
2020-Mar-24 07:30N 53°44' W 000°16'2512.4
2020-Mar-24 05:30N 53°31' E 000°19'5814.6
2020-Mar-24 01:30N 52°56' E 001°36'1817.9
2020-Mar-24 00:30N 52°42' E 001°55'1616.4
2020-Mar-23 23:31N 52°28' E 002°10'  
Track history (hours):
 
Tides and Currents Weather Stations Pressure Air Temp Water Temp Dewpoint Dewpoint Depression Visibility Wind Speed Wind Dir Waves Ship Positions

Pride Of Bruges

Operator: P&O Ferries

Last reported at 2020-Apr-02 21:30 UTC. Time now 2020-Apr-02 22:58 UTC.
Position N 53°10' E 000°51'.

Length 180 m; draft 5.5 m.

Type: Ship (hazmat cat B). MMSI: 244387000.

Date/timePositionNaut miles runAvg speedWind from/ knotsBaromVisibWave heightAir tempDewpointWater temp
2020-Apr-02 21:30N 53°10' E 000°51'815.4
2020-Apr-02 21:01N 53°16' E 000°42'2315.4
2020-Apr-02 19:30N 53°32' E 000°15'815.1
2020-Apr-02 19:00N 53°35' E 000°03'815.6
2020-Apr-02 18:30N 53°38' W 000°09'8 2.6
2020-Apr-02 15:30N 53°45' W 000°16'0 0.0
2020-Apr-02 13:29N 53°45' W 000°16'0 0.0
2020-Apr-02 11:58N 53°45' W 000°16'0 0.0
2020-Apr-02 11:00N 53°45' W 000°16'0 0.0
2020-Apr-02 10:30N 53°45' W 000°16'0 0.0
2020-Apr-02 09:30N 53°45' W 000°16'0 0.1
2020-Apr-02 08:00N 53°45' W 000°16'0 0.6
2020-Apr-02 07:30N 53°44' W 000°17'18 9.2
2020-Apr-02 05:30N 53°34' E 000°08'4013.5
2020-Apr-02 02:30N 53°15' E 001°08'714.5
2020-Apr-02 02:01N 53°09' E 001°16'4013.4
2020-Apr-01 23:00N 52°38' E 001°59'713.9
2020-Apr-01 22:31N 52°32' E 002°04'1515.4
2020-Apr-01 21:31N 52°18' E 002°14'815.7
2020-Apr-01 21:01N 52°11' E 002°19'4015.9
2020-Apr-01 18:30N 51°35' E 002°48'815.9
2020-Apr-01 18:00N 51°29' E 002°56'1313.2
2020-Apr-01 17:01N 51°21' E 003°12'1 1.5
2020-Apr-01 16:30N 51°20' E 003°11'0 0.0
2020-Apr-01 10:30N 51°20' E 003°11'0 0.0
2020-Apr-01 07:59N 51°20' E 003°11'0 0.0
2020-Apr-01 07:26N 51°20' E 003°11'13214.0
2020-Mar-31 22:01N 53°05' E 001°00'5914.7
2020-Mar-31 18:01N 53°43' W 000°15'2 1.1
2020-Mar-31 16:30N 53°45' W 000°16'0 0.0
2020-Mar-31 16:00N 53°45' W 000°16'0 0.0
2020-Mar-31 11:28N 53°45' W 000°16'0 0.0
2020-Mar-31 10:58N 53°45' W 000°16'0 0.0
2020-Mar-31 10:00N 53°45' W 000°16'0 0.0
2020-Mar-31 09:30N 53°45' W 000°16'0 0.0
2020-Mar-31 08:30N 53°45' W 000°16'0 0.1
2020-Mar-31 07:30N 53°44' W 000°16'7 7.5
2020-Mar-31 06:30N 53°38' W 000°10'2113.8
2020-Mar-31 04:59N 53°33' E 000°25'2213.7
2020-Mar-31 03:24N 53°22' E 000°55'3614.8
2020-Mar-31 01:00N 52°55' E 001°35'2013.4
2020-Mar-30 23:30N 52°41' E 001°58'2613.0
2020-Mar-30 21:30N 52°17' E 002°14'714.3
2020-Mar-30 21:00N 52°10' E 002°19'5215.0
2020-Mar-30 17:30N 51°25' E 003°02'8 7.3
2020-Mar-30 16:28N 51°20' E 003°11'0 0.0
2020-Mar-30 14:30N 51°20' E 003°11'0 0.0
2020-Mar-30 13:57N 51°20' E 003°11'0 0.0
2020-Mar-30 11:59N 51°20' E 003°11'0 0.0
2020-Mar-30 10:28N 51°20' E 003°11'0 0.0
2020-Mar-30 08:30N 51°20' E 003°11'0 0.0
2020-Mar-30 08:00N 51°20' E 003°11'13 6.4
2020-Mar-30 06:00N 51°27' E 002°54'714.7
2020-Mar-30 05:30N 51°32' E 002°46'5014.4
2020-Mar-30 02:01N 52°19' E 002°15'816.1
2020-Mar-30 01:31N 52°27' E 002°11'4816.0
2020-Mar-29 22:30N 53°00' E 001°14'1616.3
2020-Mar-29 21:30N 53°10' E 000°52'3215.9
2020-Mar-29 19:31N 53°32' E 000°14'713.2
2020-Mar-29 19:00N 53°35' E 000°04'1212.5
2020-Mar-29 18:00N 53°42' W 000°14'3 6.7
2020-Mar-29 17:30N 53°44' W 000°16'0 0.1
2020-Mar-29 16:30N 53°45' W 000°16'0 0.0
2020-Mar-29 14:30N 53°45' W 000°16'0 0.0
2020-Mar-29 13:30N 53°45' W 000°16'0 0.0
2020-Mar-29 13:00N 53°45' W 000°16'0 0.0
2020-Mar-29 12:29N 53°45' W 000°16'0 0.0
2020-Mar-29 11:29N 53°45' W 000°16'0 0.0
2020-Mar-29 08:58N 53°45' W 000°16'0 0.0
2020-Mar-29 03:28N 53°45' W 000°16'0 0.0
2020-Mar-29 02:28N 53°45' W 000°16'0 0.0
2020-Mar-29 00:00N 53°45' W 000°16'0 0.0
2020-Mar-28 23:30N 53°45' W 000°16'0 0.0
2020-Mar-28 20:59N 53°45' W 000°16'0 0.0
2020-Mar-28 19:28N 53°45' W 000°16'0 0.0
2020-Mar-28 15:29N 53°45' W 000°16'0 0.0
2020-Mar-28 12:28N 53°45' W 000°16'0 0.0
2020-Mar-28 11:58N 53°45' W 000°16'0 0.0
2020-Mar-28 11:28N 53°45' W 000°16'0 0.1
2020-Mar-28 08:30N 53°45' W 000°16'18 8.8
2020-Mar-28 06:30N 53°34' E 000°07'713.2
2020-Mar-28 06:00N 53°32' E 000°18'4113.8
2020-Mar-28 03:01N 53°10' E 001°17'816.7
2020-Mar-28 02:30N 53°04' E 001°26'816.4
2020-Mar-28 02:00N 52°57' E 001°34'1616.2
2020-Mar-28 01:00N 52°45' E 001°51'3513.9
2020-Mar-27 22:30N 52°14' E 002°16'1313.2
2020-Mar-27 21:30N 52°01' E 002°25'5011.1
2020-Mar-27 16:59N 51°20' E 003°11'0 0.0
2020-Mar-27 16:29N 51°20' E 003°11'0 0.0
2020-Mar-27 15:59N 51°20' E 003°11'0 0.0
2020-Mar-27 14:58N 51°20' E 003°11'0 0.0
2020-Mar-27 13:28N 51°20' E 003°11'0 0.0
2020-Mar-27 12:30N 51°20' E 003°11'0 0.0
2020-Mar-27 12:00N 51°20' E 003°11'0 0.0
2020-Mar-27 10:29N 51°20' E 003°11'0 0.0
2020-Mar-27 09:59N 51°20' E 003°11'0 0.0
2020-Mar-27 08:00N 51°20' E 003°11'2311.4
2020-Mar-27 06:00N 51°35' E 002°43'3714.8
2020-Mar-27 03:30N 52°10' E 002°22'9415.6
2020-Mar-26 21:30N 53°23' E 000°47'1416.4
2020-Mar-26 20:41N 53°28' E 000°25'3011.0
2020-Mar-26 17:59N 53°45' W 000°16'0 0.0
2020-Mar-26 17:28N 53°45' W 000°16'0 0.0
2020-Mar-26 15:00N 53°45' W 000°16'0 0.0
2020-Mar-26 13:30N 53°45' W 000°16'0 0.0
2020-Mar-26 10:59N 53°45' W 000°16'0 0.0
2020-Mar-26 09:58N 53°45' W 000°16'0 0.0
2020-Mar-26 09:28N 53°45' W 000°16'0 0.1
2020-Mar-26 08:00N 53°45' W 000°16'0 0.6
2020-Mar-26 07:30N 53°44' W 000°16'510.5
2020-Mar-26 07:01N 53°40' W 000°12'815.6
2020-Mar-26 06:30N 53°36' W 000°01'815.3
2020-Mar-26 06:00N 53°33' E 000°11'612.9
2020-Mar-26 05:30N 53°30' E 000°21'1713.2
2020-Mar-26 04:13N 53°24' E 000°48'1114.9
2020-Mar-26 03:30N 53°18' E 001°02'7316.3
2020-Mar-25 23:00N 52°21' E 002°17'3514.0
2020-Mar-25 20:30N 51°48' E 002°40'34 6.8
2020-Mar-25 15:30N 51°20' E 003°11'0 0.0
2020-Mar-25 13:29N 51°20' E 003°11'0 0.0
2020-Mar-25 12:59N 51°20' E 003°11'0 0.0
2020-Mar-25 10:30N 51°20' E 003°11'0 0.0
2020-Mar-25 08:30N 51°20' E 003°11'0 0.0
2020-Mar-25 08:00N 51°20' E 003°11'3211.8
2020-Mar-25 05:17N 51°44' E 002°37'5915.5
2020-Mar-25 01:31N 52°38' E 001°59'815.1
2020-Mar-25 01:01N 52°44' E 001°52'815.8
2020-Mar-25 00:31N 52°50' E 001°44'2416.3
2020-Mar-24 23:01N 53°09' E 001°17'2415.9
2020-Mar-24 21:28N 53°23' E 000°44'2315.9
2020-Mar-24 20:01N 53°33' E 000°09'917.6
2020-Mar-24 19:31N 53°37' W 000°05'815.6
2020-Mar-24 19:00N 53°42' W 000°14'3 1.7
2020-Mar-24 17:31N 53°45' W 000°16'0 0.0
2020-Mar-24 17:00N 53°45' W 000°16'0 0.0
2020-Mar-24 15:31N 53°45' W 000°16'0 0.0
2020-Mar-24 14:00N 53°45' W 000°16'0 0.0
2020-Mar-24 13:31N 53°45' W 000°16'0 0.0
2020-Mar-24 13:00N 53°45' W 000°16'0 0.0
2020-Mar-24 10:00N 53°45' W 000°16'0 0.0
2020-Mar-24 08:31N 53°45' W 000°16'0 0.2
2020-Mar-24 08:00N 53°44' W 000°16'0 0.3
2020-Mar-24 07:30N 53°44' W 000°16'2512.4
2020-Mar-24 05:30N 53°31' E 000°19'5814.6
2020-Mar-24 01:30N 52°56' E 001°36'1817.9
2020-Mar-24 00:30N 52°42' E 001°55'1616.4
2020-Mar-23 23:31N 52°28' E 002°10'  

Dump ship's entire track history